sensor_id;sensor_type;location;lat;lon;timestamp;P1;durP1;ratioP1;P2;durP2;ratioP2
16460;SDS011;8341;42.048;24.650;2023-01-13T05:02:17;0.80;;;0.77;;
16460;SDS011;8341;42.048;24.650;2023-01-13T05:04:44;1.77;;;1.00;;
16460;SDS011;8341;42.048;24.650;2023-01-13T05:07:11;1.00;;;0.88;;
16460;SDS011;8341;42.048;24.650;2023-01-13T05:09:39;0.63;;;0.63;;
16460;SDS011;8341;42.048;24.650;2023-01-13T05:12:06;0.60;;;0.60;;
16460;SDS011;8341;42.048;24.650;2023-01-13T05:14:53;0.80;;;0.80;;
16460;SDS011;8341;42.048;24.650;2023-01-13T05:17:37;0.70;;;0.60;;
16460;SDS011;8341;42.048;24.650;2023-01-13T05:20:06;1.75;;;0.82;;
16460;SDS011;8341;42.048;24.650;2023-01-13T05:22:34;1.08;;;0.82;;
16460;SDS011;8341;42.048;24.650;2023-01-13T05:25:18;0.60;;;0.60;;
16460;SDS011;8341;42.048;24.650;2023-01-13T05:27:48;1.20;;;0.88;;
16460;SDS011;8341;42.048;24.650;2023-01-13T05:30:17;0.50;;;0.50;;
16460;SDS011;8341;42.048;24.650;2023-01-13T05:32:45;0.82;;;0.82;;
16460;SDS011;8341;42.048;24.650;2023-01-13T05:35:12;3.28;;;2.35;;
16460;SDS011;8341;42.048;24.650;2023-01-13T05:37:40;3.85;;;2.10;;
16460;SDS011;8341;42.048;24.650;2023-01-13T05:40:07;6.63;;;4.50;;
16460;SDS011;8341;42.048;24.650;2023-01-13T05:42:59;2.75;;;1.92;;
16460;SDS011;8341;42.048;24.650;2023-01-13T05:45:46;2.67;;;1.80;;
16460;SDS011;8341;42.048;24.650;2023-01-13T05:48:15;1.35;;;1.05;;
16460;SDS011;8341;42.048;24.650;2023-01-13T05:50:43;0.88;;;0.88;;
16460;SDS011;8341;42.048;24.650;2023-01-13T05:53:10;1.25;;;0.70;;
16460;SDS011;8341;42.048;24.650;2023-01-13T05:55:37;0.98;;;0.70;;
16460;SDS011;8341;42.048;24.650;2023-01-13T05:58:05;0.90;;;0.90;;
16460;SDS011;8341;42.048;24.650;2023-01-13T06:00:32;1.02;;;0.90;;
16460;SDS011;8341;42.048;24.650;2023-01-13T06:03:01;0.77;;;0.77;;
16460;SDS011;8341;42.048;24.650;2023-01-13T06:05:29;1.05;;;0.93;;
16460;SDS011;8341;42.048;24.650;2023-01-13T06:07:56;1.10;;;1.00;;
16460;SDS011;8341;42.048;24.650;2023-01-13T06:10:23;1.67;;;1.17;;
16460;SDS011;8341;42.048;24.650;2023-01-13T06:12:50;0.93;;;0.93;;
16460;SDS011;8341;42.048;24.650;2023-01-13T06:15:17;0.93;;;0.90;;
16460;SDS011;8341;42.048;24.650;2023-01-13T06:17:44;0.90;;;0.90;;
16460;SDS011;8341;42.048;24.650;2023-01-13T06:20:12;0.93;;;0.93;;
16460;SDS011;8341;42.048;24.650;2023-01-13T06:22:42;0.98;;;0.88;;
16460;SDS011;8341;42.048;24.650;2023-01-13T06:25:11;0.95;;;0.90;;
16460;SDS011;8341;42.048;24.650;2023-01-13T06:27:44;0.90;;;0.90;;
16460;SDS011;8341;42.048;24.650;2023-01-13T06:30:11;1.13;;;0.93;;
16460;SDS011;8341;42.048;24.650;2023-01-13T06:32:39;1.55;;;1.27;;
16460;SDS011;8341;42.048;24.650;2023-01-13T06:35:09;2.17;;;1.45;;
16460;SDS011;8341;42.048;24.650;2023-01-13T06:37:40;1.27;;;1.00;;
16460;SDS011;8341;42.048;24.650;2023-01-13T06:40:09;0.80;;;0.80;;
16460;SDS011;8341;42.048;24.650;2023-01-13T06:42:39;0.70;;;0.70;;
16460;SDS011;8341;42.048;24.650;2023-01-13T06:45:24;1.15;;;1.00;;
16460;SDS011;8341;42.048;24.650;2023-01-13T06:47:54;0.93;;;0.93;;
16460;SDS011;8341;42.048;24.650;2023-01-13T06:50:23;0.90;;;0.90;;
16460;SDS011;8341;42.048;24.650;2023-01-13T06:52:51;0.90;;;0.90;;
16460;SDS011;8341;42.048;24.650;2023-01-13T06:55:17;1.10;;;1.10;;
16460;SDS011;8341;42.048;24.650;2023-01-13T06:57:48;2.28;;;1.10;;
16460;SDS011;8341;42.048;24.650;2023-01-13T07:00:16;1.08;;;1.00;;
16460;SDS011;8341;42.048;24.650;2023-01-13T07:02:43;1.45;;;1.13;;
16460;SDS011;8341;42.048;24.650;2023-01-13T07:05:10;1.10;;;0.98;;
16460;SDS011;8341;42.048;24.650;2023-01-13T07:07:37;0.95;;;0.93;;
16460;SDS011;8341;42.048;24.650;2023-01-13T07:10:05;1.20;;;1.10;;
16460;SDS011;8341;42.048;24.650;2023-01-13T07:12:36;1.15;;;1.05;;
16460;SDS011;8341;42.048;24.650;2023-01-13T07:15:22;1.10;;;1.00;;
16460;SDS011;8341;42.048;24.650;2023-01-13T07:17:48;1.85;;;1.48;;
16460;SDS011;8341;42.048;24.650;2023-01-13T07:20:15;1.40;;;1.30;;
16460;SDS011;8341;42.048;24.650;2023-01-13T07:22:42;1.30;;;1.20;;
16460;SDS011;8341;42.048;24.650;2023-01-13T07:25:11;1.42;;;1.33;;
16460;SDS011;8341;42.048;24.650;2023-01-13T07:27:38;1.52;;;1.38;;
16460;SDS011;8341;42.048;24.650;2023-01-13T07:30:05;1.30;;;1.17;;
16460;SDS011;8341;42.048;24.650;2023-01-13T07:32:33;1.25;;;1.15;;
16460;SDS011;8341;42.048;24.650;2023-01-13T07:35:00;3.15;;;1.42;;
16460;SDS011;8341;42.048;24.650;2023-01-13T07:37:30;1.88;;;1.77;;
16460;SDS011;8341;42.048;24.650;2023-01-13T07:39:57;1.67;;;1.58;;
16460;SDS011;8341;42.048;24.650;2023-01-13T07:42:26;1.85;;;1.52;;
16460;SDS011;8341;42.048;24.650;2023-01-13T07:45:10;1.83;;;1.55;;
16460;SDS011;8341;42.048;24.650;2023-01-13T07:47:37;2.22;;;1.50;;
16460;SDS011;8341;42.048;24.650;2023-01-13T07:50:05;3.10;;;1.40;;
16460;SDS011;8341;42.048;24.650;2023-01-13T07:52:32;6.70;;;4.30;;
16460;SDS011;8341;42.048;24.650;2023-01-13T07:54:59;2.55;;;2.10;;
16460;SDS011;8341;42.048;24.650;2023-01-13T07:57:27;5.45;;;3.80;;
16460;SDS011;8341;42.048;24.650;2023-01-13T07:59:54;3.85;;;3.10;;
16460;SDS011;8341;42.048;24.650;2023-01-13T08:02:21;2.78;;;2.30;;
16460;SDS011;8341;42.048;24.650;2023-01-13T08:04:48;2.15;;;1.90;;
16460;SDS011;8341;42.048;24.650;2023-01-13T08:07:14;4.25;;;1.95;;
16460;SDS011;8341;42.048;24.650;2023-01-13T08:09:41;2.67;;;2.38;;
16460;SDS011;8341;42.048;24.650;2023-01-13T08:12:08;4.90;;;3.30;;
16460;SDS011;8341;42.048;24.650;2023-01-13T08:14:53;4.10;;;2.65;;
16460;SDS011;8341;42.048;24.650;2023-01-13T08:17:20;4.20;;;2.85;;
16460;SDS011;8341;42.048;24.650;2023-01-13T08:19:47;3.50;;;2.80;;
16460;SDS011;8341;42.048;24.650;2023-01-13T08:22:14;2.65;;;2.40;;
16460;SDS011;8341;42.048;24.650;2023-01-13T08:24:40;2.50;;;2.28;;
16460;SDS011;8341;42.048;24.650;2023-01-13T08:27:07;3.08;;;2.10;;
16460;SDS011;8341;42.048;24.650;2023-01-13T08:29:34;3.88;;;2.35;;
16460;SDS011;8341;42.048;24.650;2023-01-13T08:32:02;1.75;;;1.65;;
16460;SDS011;8341;42.048;24.650;2023-01-13T08:34:29;2.03;;;1.83;;
16460;SDS011;8341;42.048;24.650;2023-01-13T08:36:56;1.75;;;1.65;;
16460;SDS011;8341;42.048;24.650;2023-01-13T08:39:23;1.83;;;1.73;;
16460;SDS011;8341;42.048;24.650;2023-01-13T08:41:49;3.63;;;2.45;;
16460;SDS011;8341;42.048;24.650;2023-01-13T08:44:23;2.78;;;2.10;;
16460;SDS011;8341;42.048;24.650;2023-01-13T08:46:51;2.17;;;1.40;;
16460;SDS011;8341;42.048;24.650;2023-01-13T08:49:20;1.52;;;1.33;;
16460;SDS011;8341;42.048;24.650;2023-01-13T08:51:47;1.65;;;1.55;;
16460;SDS011;8341;42.048;24.650;2023-01-13T08:54:14;1.90;;;1.50;;
16460;SDS011;8341;42.048;24.650;2023-01-13T08:56:42;204.18;;;120.22;;
16460;SDS011;8341;42.048;24.650;2023-01-13T08:59:10;17.85;;;11.70;;
16460;SDS011;8341;42.048;24.650;2023-01-13T09:01:38;1.63;;;1.52;;
16460;SDS011;8341;42.048;24.650;2023-01-13T09:04:05;1.40;;;1.30;;
16460;SDS011;8341;42.048;24.650;2023-01-13T09:06:34;2.55;;;2.35;;
16460;SDS011;8341;42.048;24.650;2023-01-13T09:09:00;1.33;;;1.23;;
16460;SDS011;8341;42.048;24.650;2023-01-13T09:11:29;1.40;;;1.30;;
16460;SDS011;8341;42.048;24.650;2023-01-13T09:14:18;1.60;;;1.48;;
16460;SDS011;8341;42.048;24.650;2023-01-13T09:16:46;1.50;;;1.40;;
16460;SDS011;8341;42.048;24.650;2023-01-13T09:19:13;1.48;;;1.38;;
16460;SDS011;8341;42.048;24.650;2023-01-13T09:21:42;1.55;;;1.45;;
16460;SDS011;8341;42.048;24.650;2023-01-13T09:24:08;1.50;;;1.40;;
16460;SDS011;8341;42.048;24.650;2023-01-13T09:26:35;2.88;;;2.25;;
16460;SDS011;8341;42.048;24.650;2023-01-13T09:29:02;3.58;;;2.10;;
16460;SDS011;8341;42.048;24.650;2023-01-13T09:31:29;3.78;;;3.33;;
16460;SDS011;8341;42.048;24.650;2023-01-13T09:33:58;2.08;;;1.88;;
16460;SDS011;8341;42.048;24.650;2023-01-13T09:36:44;2.38;;;2.08;;
16460;SDS011;8341;42.048;24.650;2023-01-13T09:39:11;2.65;;;2.00;;
16460;SDS011;8341;42.048;24.650;2023-01-13T09:41:39;2.13;;;2.00;;
16460;SDS011;8341;42.048;24.650;2023-01-13T09:44:28;3.63;;;2.17;;
16460;SDS011;8341;42.048;24.650;2023-01-13T09:47:06;2.58;;;2.38;;
16460;SDS011;8341;42.048;24.650;2023-01-13T09:49:40;2.30;;;2.10;;
16460;SDS011;8341;42.048;24.650;2023-01-13T09:52:10;2.28;;;2.08;;
16460;SDS011;8341;42.048;24.650;2023-01-13T09:54:40;3.20;;;2.65;;
16460;SDS011;8341;42.048;24.650;2023-01-13T09:57:09;3.60;;;2.83;;
16460;SDS011;8341;42.048;24.650;2023-01-13T09:59:37;3.70;;;2.97;;
16460;SDS011;8341;42.048;24.650;2023-01-13T10:05:05;5.90;;;3.40;;
16460;SDS011;8341;42.048;24.650;2023-01-13T10:07:41;3.35;;;3.00;;
16460;SDS011;8341;42.048;24.650;2023-01-13T10:10:15;3.53;;;3.22;;
16460;SDS011;8341;42.048;24.650;2023-01-13T10:12:46;4.93;;;3.38;;
16460;SDS011;8341;42.048;24.650;2023-01-13T10:15:35;3.75;;;3.10;;
16460;SDS011;8341;42.048;24.650;2023-01-13T10:18:03;4.72;;;3.38;;
16460;SDS011;8341;42.048;24.650;2023-01-13T10:20:39;5.25;;;2.95;;
16460;SDS011;8341;42.048;24.650;2023-01-13T10:23:26;3.88;;;3.22;;
16460;SDS011;8341;42.048;24.650;2023-01-13T10:26:24;3.95;;;3.30;;
16460;SDS011;8341;42.048;24.650;2023-01-13T10:29:02;5.78;;;3.53;;
16460;SDS011;8341;42.048;24.650;2023-01-13T10:31:28;3.85;;;3.30;;
16460;SDS011;8341;42.048;24.650;2023-01-13T10:33:58;3.15;;;2.90;;
16460;SDS011;8341;42.048;24.650;2023-01-13T10:36:27;4.57;;;3.38;;
16460;SDS011;8341;42.048;24.650;2023-01-13T10:39:05;4.43;;;3.42;;
16460;SDS011;8341;42.048;24.650;2023-01-13T10:41:34;5.03;;;4.00;;
16460;SDS011;8341;42.048;24.650;2023-01-13T10:44:02;5.72;;;3.75;;
16460;SDS011;8341;42.048;24.650;2023-01-13T10:46:31;5.82;;;3.80;;
16460;SDS011;8341;42.048;24.650;2023-01-13T10:48:59;4.80;;;3.70;;
16460;SDS011;8341;42.048;24.650;2023-01-13T10:51:27;5.53;;;4.25;;
16460;SDS011;8341;42.048;24.650;2023-01-13T10:53:59;4.97;;;3.78;;
16460;SDS011;8341;42.048;24.650;2023-01-13T10:56:28;7.43;;;5.40;;
16460;SDS011;8341;42.048;24.650;2023-01-13T10:59:08;6.15;;;4.55;;
16460;SDS011;8341;42.048;24.650;2023-01-13T11:01:40;7.47;;;5.53;;
16460;SDS011;8341;42.048;24.650;2023-01-13T11:04:20;7.32;;;5.13;;
16460;SDS011;8341;42.048;24.650;2023-01-13T11:06:53;6.35;;;5.00;;
16460;SDS011;8341;42.048;24.650;2023-01-13T11:09:21;5.80;;;4.53;;
16460;SDS011;8341;42.048;24.650;2023-01-13T11:11:50;6.57;;;4.50;;
16460;SDS011;8341;42.048;24.650;2023-01-13T11:14:21;6.15;;;4.10;;
16460;SDS011;8341;42.048;24.650;2023-01-13T11:17:13;4.95;;;4.00;;
16460;SDS011;8341;42.048;24.650;2023-01-13T11:19:51;4.93;;;3.97;;
16460;SDS011;8341;42.048;24.650;2023-01-13T11:22:24;6.88;;;4.30;;
16460;SDS011;8341;42.048;24.650;2023-01-13T11:24:57;6.20;;;4.95;;
16460;SDS011;8341;42.048;24.650;2023-01-13T11:27:30;5.95;;;4.57;;
16460;SDS011;8341;42.048;24.650;2023-01-13T11:30:06;6.15;;;4.70;;
16460;SDS011;8341;42.048;24.650;2023-01-13T11:32:46;8.63;;;4.97;;
16460;SDS011;8341;42.048;24.650;2023-01-13T11:35:25;8.63;;;5.35;;
16460;SDS011;8341;42.048;24.650;2023-01-13T11:37:56;7.07;;;4.95;;
16460;SDS011;8341;42.048;24.650;2023-01-13T11:40:31;7.00;;;5.88;;
16460;SDS011;8341;42.048;24.650;2023-01-13T11:43:02;8.00;;;5.40;;
16460;SDS011;8341;42.048;24.650;2023-01-13T11:45:37;8.98;;;6.28;;
16460;SDS011;8341;42.048;24.650;2023-01-13T11:48:10;8.18;;;5.50;;
16460;SDS011;8341;42.048;24.650;2023-01-13T11:50:41;7.80;;;5.18;;
16460;SDS011;8341;42.048;24.650;2023-01-13T11:53:19;8.02;;;5.35;;
16460;SDS011;8341;42.048;24.650;2023-01-13T11:56:11;6.90;;;5.20;;
16460;SDS011;8341;42.048;24.650;2023-01-13T11:59:03;6.82;;;5.68;;
16460;SDS011;8341;42.048;24.650;2023-01-13T12:01:42;7.50;;;5.85;;
16460;SDS011;8341;42.048;24.650;2023-01-13T12:04:25;7.72;;;6.18;;
16460;SDS011;8341;42.048;24.650;2023-01-13T12:07:06;7.53;;;6.20;;
16460;SDS011;8341;42.048;24.650;2023-01-13T12:09:43;8.02;;;6.00;;
16460;SDS011;8341;42.048;24.650;2023-01-13T12:12:25;7.03;;;5.55;;
16460;SDS011;8341;42.048;24.650;2023-01-13T12:15:26;8.88;;;6.25;;
16460;SDS011;8341;42.048;24.650;2023-01-13T12:18:17;9.30;;;6.00;;
16460;SDS011;8341;42.048;24.650;2023-01-13T12:21:00;8.13;;;6.35;;
16460;SDS011;8341;42.048;24.650;2023-01-13T12:23:39;10.43;;;7.45;;
16460;SDS011;8341;42.048;24.650;2023-01-13T12:26:12;9.70;;;6.90;;
16460;SDS011;8341;42.048;24.650;2023-01-13T12:28:43;10.63;;;7.45;;
16460;SDS011;8341;42.048;24.650;2023-01-13T12:31:15;10.85;;;7.10;;
16460;SDS011;8341;42.048;24.650;2023-01-13T12:36:48;10.88;;;7.70;;
16460;SDS011;8341;42.048;24.650;2023-01-13T12:39:24;12.88;;;7.95;;
16460;SDS011;8341;42.048;24.650;2023-01-13T12:42:03;11.90;;;8.50;;
16460;SDS011;8341;42.048;24.650;2023-01-13T12:48:00;11.52;;;8.20;;
16460;SDS011;8341;42.048;24.650;2023-01-13T12:50:37;13.57;;;9.15;;
16460;SDS011;8341;42.048;24.650;2023-01-13T12:56:19;12.13;;;8.68;;
16460;SDS011;8341;42.048;24.650;2023-01-13T12:58:55;12.32;;;8.98;;
16460;SDS011;8341;42.048;24.650;2023-01-13T13:02:26;13.82;;;9.48;;
16460;SDS011;8341;42.048;24.650;2023-01-13T13:04:56;10.48;;;7.90;;
16460;SDS011;8341;42.048;24.650;2023-01-13T13:07:30;12.02;;;8.15;;
16460;SDS011;8341;42.048;24.650;2023-01-13T13:10:04;12.57;;;8.93;;
16460;SDS011;8341;42.048;24.650;2023-01-13T13:12:55;11.15;;;8.70;;
16460;SDS011;8341;42.048;24.650;2023-01-13T13:15:41;12.70;;;8.88;;
16460;SDS011;8341;42.048;24.650;2023-01-13T13:18:24;15.57;;;8.95;;
16460;SDS011;8341;42.048;24.650;2023-01-13T13:23:43;14.00;;;9.25;;
16460;SDS011;8341;42.048;24.650;2023-01-13T13:26:30;12.90;;;9.18;;
16460;SDS011;8341;42.048;24.650;2023-01-13T13:29:07;13.82;;;8.68;;
16460;SDS011;8341;42.048;24.650;2023-01-13T13:34:55;20.80;;;13.55;;
16460;SDS011;8341;42.048;24.650;2023-01-13T13:37:36;25.13;;;17.52;;
16460;SDS011;8341;42.048;24.650;2023-01-13T13:40:30;12.43;;;8.77;;
16460;SDS011;8341;42.048;24.650;2023-01-13T13:43:20;49.67;;;30.55;;
16460;SDS011;8341;42.048;24.650;2023-01-13T13:46:19;14.40;;;9.43;;
16460;SDS011;8341;42.048;24.650;2023-01-13T13:49:06;12.63;;;8.32;;
16460;SDS011;8341;42.048;24.650;2023-01-13T13:51:35;17.75;;;12.10;;
16460;SDS011;8341;42.048;24.650;2023-01-13T13:54:08;12.20;;;9.02;;
16460;SDS011;8341;42.048;24.650;2023-01-13T13:56:37;11.77;;;8.40;;
16460;SDS011;8341;42.048;24.650;2023-01-13T13:59:08;11.13;;;8.10;;
16460;SDS011;8341;42.048;24.650;2023-01-13T14:01:37;12.65;;;8.82;;
16460;SDS011;8341;42.048;24.650;2023-01-13T14:04:10;11.18;;;8.18;;
16460;SDS011;8341;42.048;24.650;2023-01-13T14:06:47;13.02;;;8.70;;
16460;SDS011;8341;42.048;24.650;2023-01-13T14:09:17;11.98;;;8.50;;
16460;SDS011;8341;42.048;24.650;2023-01-13T14:11:55;13.55;;;8.45;;
16460;SDS011;8341;42.048;24.650;2023-01-13T14:14:27;13.60;;;9.02;;
16460;SDS011;8341;42.048;24.650;2023-01-13T14:16:55;27.40;;;19.55;;
16460;SDS011;8341;42.048;24.650;2023-01-13T14:19:27;22.30;;;15.18;;
16460;SDS011;8341;42.048;24.650;2023-01-13T14:21:56;17.33;;;11.98;;
16460;SDS011;8341;42.048;24.650;2023-01-13T14:24:27;13.70;;;9.90;;
16460;SDS011;8341;42.048;24.650;2023-01-13T14:27:05;16.05;;;11.57;;
16460;SDS011;8341;42.048;24.650;2023-01-13T14:29:33;12.45;;;9.32;;
16460;SDS011;8341;42.048;24.650;2023-01-13T14:32:00;14.00;;;10.52;;
16460;SDS011;8341;42.048;24.650;2023-01-13T14:34:30;15.75;;;10.48;;
16460;SDS011;8341;42.048;24.650;2023-01-13T14:36:58;34.58;;;23.25;;
16460;SDS011;8341;42.048;24.650;2023-01-13T14:39:34;18.35;;;11.88;;
16460;SDS011;8341;42.048;24.650;2023-01-13T14:42:02;18.90;;;11.80;;
16460;SDS011;8341;42.048;24.650;2023-01-13T14:44:30;32.58;;;23.30;;
16460;SDS011;8341;42.048;24.650;2023-01-13T14:47:00;22.58;;;14.52;;
16460;SDS011;8341;42.048;24.650;2023-01-13T14:49:30;22.25;;;14.15;;
16460;SDS011;8341;42.048;24.650;2023-01-13T14:52:09;15.43;;;10.45;;
16460;SDS011;8341;42.048;24.650;2023-01-13T14:54:48;16.33;;;9.93;;
16460;SDS011;8341;42.048;24.650;2023-01-13T14:57:25;15.68;;;9.93;;
16460;SDS011;8341;42.048;24.650;2023-01-13T15:00:01;15.70;;;9.65;;
16460;SDS011;8341;42.048;24.650;2023-01-13T15:02:40;23.42;;;13.05;;
16460;SDS011;8341;42.048;24.650;2023-01-13T15:08:02;24.90;;;14.40;;
16460;SDS011;8341;42.048;24.650;2023-01-13T15:10:35;26.40;;;16.38;;
16460;SDS011;8341;42.048;24.650;2023-01-13T15:13:16;36.65;;;23.45;;
16460;SDS011;8341;42.048;24.650;2023-01-13T15:15:49;38.40;;;25.88;;
16460;SDS011;8341;42.048;24.650;2023-01-13T15:18:17;31.00;;;21.58;;
16460;SDS011;8341;42.048;24.650;2023-01-13T15:20:44;25.08;;;16.08;;
16460;SDS011;8341;42.048;24.650;2023-01-13T15:23:11;43.53;;;18.90;;
16460;SDS011;8341;42.048;24.650;2023-01-13T15:25:40;30.80;;;14.93;;
16460;SDS011;8341;42.048;24.650;2023-01-13T15:28:10;38.63;;;17.80;;
16460;SDS011;8341;42.048;24.650;2023-01-13T15:30:42;20.40;;;13.00;;
16460;SDS011;8341;42.048;24.650;2023-01-13T15:33:09;16.77;;;11.40;;
16460;SDS011;8341;42.048;24.650;2023-01-13T15:35:38;20.85;;;12.60;;
16460;SDS011;8341;42.048;24.650;2023-01-13T15:38:09;18.48;;;11.75;;
16460;SDS011;8341;42.048;24.650;2023-01-13T15:40:37;42.28;;;26.75;;
16460;SDS011;8341;42.048;24.650;2023-01-13T15:43:05;45.33;;;33.58;;
16460;SDS011;8341;42.048;24.650;2023-01-13T15:45:49;37.53;;;23.50;;
16460;SDS011;8341;42.048;24.650;2023-01-13T15:48:33;34.15;;;22.92;;
16460;SDS011;8341;42.048;24.650;2023-01-13T15:51:00;32.05;;;22.52;;
16460;SDS011;8341;42.048;24.650;2023-01-13T15:53:27;35.35;;;23.67;;
16460;SDS011;8341;42.048;24.650;2023-01-13T15:55:54;37.35;;;25.13;;
16460;SDS011;8341;42.048;24.650;2023-01-13T15:58:25;34.63;;;24.98;;
16460;SDS011;8341;42.048;24.650;2023-01-13T16:00:53;32.40;;;23.77;;
16460;SDS011;8341;42.048;24.650;2023-01-13T16:03:20;37.10;;;25.70;;
16460;SDS011;8341;42.048;24.650;2023-01-13T16:05:47;105.97;;;53.17;;
16460;SDS011;8341;42.048;24.650;2023-01-13T16:08:15;86.47;;;52.15;;
16460;SDS011;8341;42.048;24.650;2023-01-13T16:10:42;55.35;;;35.15;;
16460;SDS011;8341;42.048;24.650;2023-01-13T16:13:10;69.93;;;42.00;;
16460;SDS011;8341;42.048;24.650;2023-01-13T16:15:44;107.72;;;59.72;;
16460;SDS011;8341;42.048;24.650;2023-01-13T16:18:14;65.43;;;39.60;;
16460;SDS011;8341;42.048;24.650;2023-01-13T16:20:43;48.67;;;29.02;;
16460;SDS011;8341;42.048;24.650;2023-01-13T16:23:10;34.80;;;24.45;;
16460;SDS011;8341;42.048;24.650;2023-01-13T16:25:38;40.80;;;24.50;;
16460;SDS011;8341;42.048;24.650;2023-01-13T16:28:08;25.77;;;17.92;;
16460;SDS011;8341;42.048;24.650;2023-01-13T16:30:45;29.58;;;17.25;;
16460;SDS011;8341;42.048;24.650;2023-01-13T16:33:12;36.88;;;20.38;;
16460;SDS011;8341;42.048;24.650;2023-01-13T16:35:39;38.38;;;21.45;;
16460;SDS011;8341;42.048;24.650;2023-01-13T16:38:08;65.80;;;38.70;;
16460;SDS011;8341;42.048;24.650;2023-01-13T16:40:39;72.47;;;38.33;;
16460;SDS011;8341;42.048;24.650;2023-01-13T16:43:06;77.63;;;40.95;;
16460;SDS011;8341;42.048;24.650;2023-01-13T16:45:34;69.82;;;36.63;;
16460;SDS011;8341;42.048;24.650;2023-01-13T16:48:02;71.85;;;39.03;;
16460;SDS011;8341;42.048;24.650;2023-01-13T16:50:31;74.15;;;40.13;;
16460;SDS011;8341;42.048;24.650;2023-01-13T16:53:00;61.10;;;33.95;;
16460;SDS011;8341;42.048;24.650;2023-01-13T16:55:27;53.88;;;31.48;;
16460;SDS011;8341;42.048;24.650;2023-01-13T16:57:54;57.28;;;33.35;;
16460;SDS011;8341;42.048;24.650;2023-01-13T17:00:21;75.18;;;43.95;;
16460;SDS011;8341;42.048;24.650;2023-01-13T17:02:48;48.08;;;28.65;;
16460;SDS011;8341;42.048;24.650;2023-01-13T17:05:17;40.25;;;22.85;;
16460;SDS011;8341;42.048;24.650;2023-01-13T17:07:45;33.08;;;18.73;;
16460;SDS011;8341;42.048;24.650;2023-01-13T17:10:13;30.20;;;17.27;;
16460;SDS011;8341;42.048;24.650;2023-01-13T17:12:40;23.02;;;14.40;;
16460;SDS011;8341;42.048;24.650;2023-01-13T17:15:09;27.73;;;16.95;;
16460;SDS011;8341;42.048;24.650;2023-01-13T17:17:37;21.70;;;13.60;;
16460;SDS011;8341;42.048;24.650;2023-01-13T17:20:06;21.55;;;14.23;;
16460;SDS011;8341;42.048;24.650;2023-01-13T17:22:35;25.00;;;15.80;;
16460;SDS011;8341;42.048;24.650;2023-01-13T17:25:02;27.10;;;15.55;;
16460;SDS011;8341;42.048;24.650;2023-01-13T17:27:29;27.35;;;15.07;;
16460;SDS011;8341;42.048;24.650;2023-01-13T17:29:56;28.85;;;17.73;;
16460;SDS011;8341;42.048;24.650;2023-01-13T17:32:23;26.85;;;14.88;;
16460;SDS011;8341;42.048;24.650;2023-01-13T17:34:50;26.30;;;13.93;;
16460;SDS011;8341;42.048;24.650;2023-01-13T17:37:18;20.15;;;12.02;;
16460;SDS011;8341;42.048;24.650;2023-01-13T17:39:46;23.00;;;14.65;;
16460;SDS011;8341;42.048;24.650;2023-01-13T17:42:15;24.58;;;15.05;;
16460;SDS011;8341;42.048;24.650;2023-01-13T17:44:42;23.75;;;14.85;;
16460;SDS011;8341;42.048;24.650;2023-01-13T17:47:09;16.08;;;9.93;;
16460;SDS011;8341;42.048;24.650;2023-01-13T17:49:35;17.75;;;10.23;;
16460;SDS011;8341;42.048;24.650;2023-01-13T17:52:02;12.55;;;8.15;;
16460;SDS011;8341;42.048;24.650;2023-01-13T17:54:30;10.02;;;6.90;;
16460;SDS011;8341;42.048;24.650;2023-01-13T17:56:58;23.95;;;16.05;;
16460;SDS011;8341;42.048;24.650;2023-01-13T17:59:25;25.45;;;17.42;;
16460;SDS011;8341;42.048;24.650;2023-01-13T18:01:52;33.25;;;17.90;;
16460;SDS011;8341;42.048;24.650;2023-01-13T18:04:19;65.55;;;34.72;;
16460;SDS011;8341;42.048;24.650;2023-01-13T18:06:48;39.83;;;22.88;;
16460;SDS011;8341;42.048;24.650;2023-01-13T18:09:15;28.02;;;14.05;;
16460;SDS011;8341;42.048;24.650;2023-01-13T18:11:42;30.75;;;16.85;;
16460;SDS011;8341;42.048;24.650;2023-01-13T18:14:10;16.92;;;10.68;;
16460;SDS011;8341;42.048;24.650;2023-01-13T18:16:38;20.90;;;13.23;;
16460;SDS011;8341;42.048;24.650;2023-01-13T18:19:04;17.33;;;12.50;;
16460;SDS011;8341;42.048;24.650;2023-01-13T18:21:49;15.63;;;11.15;;
16460;SDS011;8341;42.048;24.650;2023-01-13T18:24:33;26.73;;;16.08;;
16460;SDS011;8341;42.048;24.650;2023-01-13T18:27:19;27.42;;;17.85;;
16460;SDS011;8341;42.048;24.650;2023-01-13T18:29:52;25.10;;;16.85;;
16460;SDS011;8341;42.048;24.650;2023-01-13T18:32:21;23.13;;;15.00;;
16460;SDS011;8341;42.048;24.650;2023-01-13T18:34:50;15.10;;;11.18;;
16460;SDS011;8341;42.048;24.650;2023-01-13T18:37:17;13.25;;;9.23;;
16460;SDS011;8341;42.048;24.650;2023-01-13T18:39:44;15.60;;;7.75;;
16460;SDS011;8341;42.048;24.650;2023-01-13T18:42:10;9.50;;;7.05;;
16460;SDS011;8341;42.048;24.650;2023-01-13T18:44:55;9.20;;;6.72;;
16460;SDS011;8341;42.048;24.650;2023-01-13T18:47:22;11.23;;;7.43;;
16460;SDS011;8341;42.048;24.650;2023-01-13T18:49:49;9.13;;;6.80;;
16460;SDS011;8341;42.048;24.650;2023-01-13T18:52:16;10.88;;;6.97;;
16460;SDS011;8341;42.048;24.650;2023-01-13T18:54:43;13.13;;;8.95;;
16460;SDS011;8341;42.048;24.650;2023-01-13T18:57:10;21.65;;;12.93;;
16460;SDS011;8341;42.048;24.650;2023-01-13T18:59:37;22.95;;;13.50;;
16460;SDS011;8341;42.048;24.650;2023-01-13T19:02:08;15.57;;;9.18;;
16460;SDS011;8341;42.048;24.650;2023-01-13T19:04:39;16.98;;;9.93;;
16460;SDS011;8341;42.048;24.650;2023-01-13T19:07:06;16.90;;;11.23;;
16460;SDS011;8341;42.048;24.650;2023-01-13T19:09:36;17.60;;;11.07;;
16460;SDS011;8341;42.048;24.650;2023-01-13T19:12:04;43.33;;;22.63;;
16460;SDS011;8341;42.048;24.650;2023-01-13T19:14:34;33.38;;;20.40;;
16460;SDS011;8341;42.048;24.650;2023-01-13T19:17:03;29.88;;;18.30;;
16460;SDS011;8341;42.048;24.650;2023-01-13T19:19:36;17.23;;;11.63;;
16460;SDS011;8341;42.048;24.650;2023-01-13T19:22:04;9.35;;;7.22;;
16460;SDS011;8341;42.048;24.650;2023-01-13T19:24:31;8.30;;;6.45;;
16460;SDS011;8341;42.048;24.650;2023-01-13T19:26:57;11.77;;;7.75;;
16460;SDS011;8341;42.048;24.650;2023-01-13T19:29:24;10.20;;;7.05;;
16460;SDS011;8341;42.048;24.650;2023-01-13T19:31:51;12.70;;;8.38;;
16460;SDS011;8341;42.048;24.650;2023-01-13T19:34:18;24.67;;;15.75;;
16460;SDS011;8341;42.048;24.650;2023-01-13T19:36:48;24.08;;;16.77;;
16460;SDS011;8341;42.048;24.650;2023-01-13T19:39:16;25.42;;;18.00;;
16460;SDS011;8341;42.048;24.650;2023-01-13T19:41:43;28.67;;;21.05;;
16460;SDS011;8341;42.048;24.650;2023-01-13T19:44:33;38.53;;;24.02;;
16460;SDS011;8341;42.048;24.650;2023-01-13T19:47:17;22.90;;;15.63;;
16460;SDS011;8341;42.048;24.650;2023-01-13T19:49:44;21.65;;;14.70;;
16460;SDS011;8341;42.048;24.650;2023-01-13T19:52:13;24.85;;;15.70;;
16460;SDS011;8341;42.048;24.650;2023-01-13T19:54:39;22.98;;;15.25;;
16460;SDS011;8341;42.048;24.650;2023-01-13T19:57:06;9.43;;;7.72;;
16460;SDS011;8341;42.048;24.650;2023-01-13T19:59:33;10.48;;;6.07;;
16460;SDS011;8341;42.048;24.650;2023-01-13T20:02:05;11.85;;;8.25;;
16460;SDS011;8341;42.048;24.650;2023-01-13T20:04:38;10.10;;;6.40;;
16460;SDS011;8341;42.048;24.650;2023-01-13T20:07:08;7.15;;;5.88;;
16460;SDS011;8341;42.048;24.650;2023-01-13T20:09:39;6.60;;;4.38;;
16460;SDS011;8341;42.048;24.650;2023-01-13T20:12:08;7.45;;;4.70;;
16460;SDS011;8341;42.048;24.650;2023-01-13T20:14:35;4.40;;;3.30;;
16460;SDS011;8341;42.048;24.650;2023-01-13T20:17:02;4.80;;;3.08;;
16460;SDS011;8341;42.048;24.650;2023-01-13T20:19:29;3.63;;;2.95;;
16460;SDS011;8341;42.048;24.650;2023-01-13T20:21:56;3.13;;;2.85;;
16460;SDS011;8341;42.048;24.650;2023-01-13T20:24:23;3.30;;;3.00;;